sensor_id;sensor_type;location;lat;lon;timestamp;pressure;altitude;pressure_sealevel;temperature;humidity
75521;BME280;64102;48.628;9.002;2023-05-07T00:01:37;95988.22;;;10.15;98.62
75521;BME280;64102;48.628;9.002;2023-05-07T00:04:02;95990.16;;;10.13;98.62
75521;BME280;64102;48.628;9.002;2023-05-07T00:06:28;95993.66;;;10.12;98.26
75521;BME280;64102;48.628;9.002;2023-05-07T00:08:54;95988.94;;;10.17;99.51
75521;BME280;64102;48.628;9.002;2023-05-07T00:11:20;95986.88;;;10.11;98.42
75521;BME280;64102;48.628;9.002;2023-05-07T00:13:45;95987.69;;;10.02;99.92
75521;BME280;64102;48.628;9.002;2023-05-07T00:16:11;95984.88;;;9.95;100.00
75521;BME280;64102;48.628;9.002;2023-05-07T00:18:36;95991.09;;;9.83;100.00
75521;BME280;64102;48.628;9.002;2023-05-07T00:21:01;95980.94;;;9.81;100.00
75521;BME280;64102;48.628;9.002;2023-05-07T00:23:27;95979.59;;;9.68;100.00
75521;BME280;64102;48.628;9.002;2023-05-07T00:25:52;95977.81;;;9.59;100.00
75521;BME280;64102;48.628;9.002;2023-05-07T00:28:17;95990.16;;;9.55;100.00
75521;BME280;64102;48.628;9.002;2023-05-07T00:30:43;95977.13;;;9.57;100.00
75521;BME280;64102;48.628;9.002;2023-05-07T00:33:08;95982.16;;;9.68;100.00
75521;BME280;64102;48.628;9.002;2023-05-07T00:35:33;95983.38;;;9.83;100.00
75521;BME280;64102;48.628;9.002;2023-05-07T00:37:59;95978.22;;;9.93;100.00
75521;BME280;64102;48.628;9.002;2023-05-07T00:40:24;95975.50;;;10.04;100.00
75521;BME280;64102;48.628;9.002;2023-05-07T00:42:49;95960.84;;;10.04;100.00
75521;BME280;64102;48.628;9.002;2023-05-07T00:45:15;95971.00;;;10.06;100.00
75521;BME280;64102;48.628;9.002;2023-05-07T00:47:42;95968.16;;;10.09;100.00
75521;BME280;64102;48.628;9.002;2023-05-07T00:50:08;95970.09;;;10.16;99.67
75521;BME280;64102;48.628;9.002;2023-05-07T00:52:36;95968.44;;;10.15;99.44
75521;BME280;64102;48.628;9.002;2023-05-07T00:55:05;95955.25;;;10.28;98.85
75521;BME280;64102;48.628;9.002;2023-05-07T00:57:34;95961.09;;;10.30;98.58
75521;BME280;64102;48.628;9.002;2023-05-07T01:00:03;95971.00;;;10.25;100.00
75521;BME280;64102;48.628;9.002;2023-05-07T01:02:29;95959.34;;;10.21;99.94
75521;BME280;64102;48.628;9.002;2023-05-07T01:04:55;95962.44;;;10.15;100.00
75521;BME280;64102;48.628;9.002;2023-05-07T01:07:20;95961.50;;;10.06;100.00
75521;BME280;64102;48.628;9.002;2023-05-07T01:09:46;95958.13;;;10.06;100.00
75521;BME280;64102;48.628;9.002;2023-05-07T01:12:12;95960.44;;;10.09;100.00
75521;BME280;64102;48.628;9.002;2023-05-07T01:14:38;95965.03;;;10.15;100.00
75521;BME280;64102;48.628;9.002;2023-05-07T01:17:03;95960.28;;;10.10;100.00
75521;BME280;64102;48.628;9.002;2023-05-07T01:19:29;95961.78;;;10.13;100.00
75521;BME280;64102;48.628;9.002;2023-05-07T01:22:08;95961.63;;;10.05;100.00
75521;BME280;64102;48.628;9.002;2023-05-07T01:24:36;95955.41;;;9.98;100.00
75521;BME280;64102;48.628;9.002;2023-05-07T01:27:01;95958.69;;;10.00;100.00
75521;BME280;64102;48.628;9.002;2023-05-07T01:29:27;95960.16;;;10.02;100.00
75521;BME280;64102;48.628;9.002;2023-05-07T01:31:54;95949.03;;;10.02;100.00
75521;BME280;64102;48.628;9.002;2023-05-07T01:34:22;95957.88;;;9.80;100.00
75521;BME280;64102;48.628;9.002;2023-05-07T01:36:48;95957.75;;;9.62;100.00
75521;BME280;64102;48.628;9.002;2023-05-07T01:39:14;95957.88;;;9.51;100.00
75521;BME280;64102;48.628;9.002;2023-05-07T01:41:41;95951.53;;;9.46;100.00
75521;BME280;64102;48.628;9.002;2023-05-07T01:44:07;95967.66;;;9.57;100.00
75521;BME280;64102;48.628;9.002;2023-05-07T01:46:34;95962.38;;;9.68;100.00
75521;BME280;64102;48.628;9.002;2023-05-07T01:48:59;95961.28;;;9.80;100.00
75521;BME280;64102;48.628;9.002;2023-05-07T01:51:25;95957.59;;;9.83;100.00
75521;BME280;64102;48.628;9.002;2023-05-07T01:53:52;95961.94;;;9.82;100.00
75521;BME280;64102;48.628;9.002;2023-05-07T01:56:18;95962.75;;;9.83;100.00
75521;BME280;64102;48.628;9.002;2023-05-07T01:58:45;95962.75;;;9.73;100.00
75521;BME280;64102;48.628;9.002;2023-05-07T02:01:14;95949.50;;;9.68;100.00
75521;BME280;64102;48.628;9.002;2023-05-07T02:03:39;95954.38;;;9.71;100.00
75521;BME280;64102;48.628;9.002;2023-05-07T02:06:05;95956.66;;;9.65;100.00
75521;BME280;64102;48.628;9.002;2023-05-07T02:08:30;95952.59;;;9.53;100.00
75521;BME280;64102;48.628;9.002;2023-05-07T02:10:56;95961.53;;;9.39;100.00
75521;BME280;64102;48.628;9.002;2023-05-07T02:13:21;95961.50;;;9.29;100.00
75521;BME280;64102;48.628;9.002;2023-05-07T02:15:47;95960.00;;;9.17;100.00
75521;BME280;64102;48.628;9.002;2023-05-07T02:18:16;95960.56;;;9.21;100.00
75521;BME280;64102;48.628;9.002;2023-05-07T02:20:41;95966.81;;;9.28;100.00
75521;BME280;64102;48.628;9.002;2023-05-07T02:23:07;95953.69;;;9.40;100.00
75521;BME280;64102;48.628;9.002;2023-05-07T02:25:32;95961.00;;;9.45;100.00
75521;BME280;64102;48.628;9.002;2023-05-07T02:27:57;95957.47;;;9.36;100.00
75521;BME280;64102;48.628;9.002;2023-05-07T02:30:24;95952.47;;;9.44;100.00
75521;BME280;64102;48.628;9.002;2023-05-07T02:32:50;95954.75;;;9.38;100.00
75521;BME280;64102;48.628;9.002;2023-05-07T02:35:15;95962.63;;;9.36;100.00
75521;BME280;64102;48.628;9.002;2023-05-07T02:37:40;95963.84;;;9.32;100.00
75521;BME280;64102;48.628;9.002;2023-05-07T02:40:06;95967.34;;;9.22;100.00
75521;BME280;64102;48.628;9.002;2023-05-07T02:42:32;95966.53;;;9.21;100.00
75521;BME280;64102;48.628;9.002;2023-05-07T02:44:57;95965.47;;;9.24;100.00
75521;BME280;64102;48.628;9.002;2023-05-07T02:47:23;95968.00;;;9.14;100.00
75521;BME280;64102;48.628;9.002;2023-05-07T02:49:48;95975.97;;;9.11;100.00
75521;BME280;64102;48.628;9.002;2023-05-07T02:52:13;95969.44;;;8.97;100.00
75521;BME280;64102;48.628;9.002;2023-05-07T02:54:39;95952.91;;;8.90;100.00
75521;BME280;64102;48.628;9.002;2023-05-07T02:57:04;95956.97;;;8.83;100.00
75521;BME280;64102;48.628;9.002;2023-05-07T02:59:29;95946.63;;;8.74;100.00
75521;BME280;64102;48.628;9.002;2023-05-07T03:01:55;95947.81;;;8.60;100.00
75521;BME280;64102;48.628;9.002;2023-05-07T03:04:20;95945.56;;;8.46;100.00
75521;BME280;64102;48.628;9.002;2023-05-07T03:06:46;95941.69;;;8.51;100.00
75521;BME280;64102;48.628;9.002;2023-05-07T03:09:11;95939.38;;;8.58;100.00
75521;BME280;64102;48.628;9.002;2023-05-07T03:11:37;95943.69;;;8.48;100.00
75521;BME280;64102;48.628;9.002;2023-05-07T03:14:02;95943.16;;;8.54;100.00
75521;BME280;64102;48.628;9.002;2023-05-07T03:16:28;95940.25;;;8.68;100.00
75521;BME280;64102;48.628;9.002;2023-05-07T03:18:53;95940.25;;;8.68;100.00
75521;BME280;64102;48.628;9.002;2023-05-07T03:21:19;95946.63;;;8.74;100.00
75521;BME280;64102;48.628;9.002;2023-05-07T03:23:44;95944.19;;;8.72;100.00
75521;BME280;64102;48.628;9.002;2023-05-07T03:26:10;95947.97;;;8.68;100.00
75521;BME280;64102;48.628;9.002;2023-05-07T03:28:36;95948.47;;;8.62;100.00
75521;BME280;64102;48.628;9.002;2023-05-07T03:31:02;95947.97;;;8.68;100.00
75521;BME280;64102;48.628;9.002;2023-05-07T03:33:27;95940.53;;;8.65;100.00
75521;BME280;64102;48.628;9.002;2023-05-07T03:35:53;95941.28;;;8.56;100.00
75521;BME280;64102;48.628;9.002;2023-05-07T03:38:18;95937.09;;;8.55;100.00
75521;BME280;64102;48.628;9.002;2023-05-07T03:40:43;95938.56;;;8.48;100.00
75521;BME280;64102;48.628;9.002;2023-05-07T03:43:09;95941.84;;;8.60;100.00
75521;BME280;64102;48.628;9.002;2023-05-07T03:45:35;95939.97;;;8.71;100.00
75521;BME280;64102;48.628;9.002;2023-05-07T03:48:00;95935.41;;;8.75;100.00
75521;BME280;64102;48.628;9.002;2023-05-07T03:50:25;95933.63;;;8.75;100.00
75521;BME280;64102;48.628;9.002;2023-05-07T03:52:51;95943.09;;;8.65;100.00
75521;BME280;64102;48.628;9.002;2023-05-07T03:55:16;95936.59;;;8.61;100.00
75521;BME280;64102;48.628;9.002;2023-05-07T03:57:42;95937.91;;;8.56;100.00
75521;BME280;64102;48.628;9.002;2023-05-07T04:00:07;95935.16;;;8.47;100.00
75521;BME280;64102;48.628;9.002;2023-05-07T04:02:33;95932.13;;;8.33;100.00
75521;BME280;64102;48.628;9.002;2023-05-07T04:04:58;95935.00;;;8.19;100.00
75521;BME280;64102;48.628;9.002;2023-05-07T04:07:24;95937.19;;;8.23;100.00
75521;BME280;64102;48.628;9.002;2023-05-07T04:09:49;95944.78;;;8.25;100.00
75521;BME280;64102;48.628;9.002;2023-05-07T04:12:15;95945.72;;;8.24;100.00
75521;BME280;64102;48.628;9.002;2023-05-07T04:14:40;95945.38;;;8.17;100.00
75521;BME280;64102;48.628;9.002;2023-05-07T04:17:05;95946.97;;;8.08;100.00
75521;BME280;64102;48.628;9.002;2023-05-07T04:19:33;95944.94;;;8.02;100.00
75521;BME280;64102;48.628;9.002;2023-05-07T04:21:58;95948.88;;;8.06;100.00
75521;BME280;64102;48.628;9.002;2023-05-07T04:24:24;95955.38;;;8.10;100.00
75521;BME280;64102;48.628;9.002;2023-05-07T04:26:49;95952.53;;;8.14;100.00
75521;BME280;64102;48.628;9.002;2023-05-07T04:29:16;95951.94;;;8.21;100.00
75521;BME280;64102;48.628;9.002;2023-05-07T04:31:41;95952.34;;;8.26;100.00
75521;BME280;64102;48.628;9.002;2023-05-07T04:34:09;95953.44;;;8.24;100.00
75521;BME280;64102;48.628;9.002;2023-05-07T04:36:37;95951.22;;;8.19;100.00
75521;BME280;64102;48.628;9.002;2023-05-07T04:39:03;95956.09;;;8.33;100.00
75521;BME280;64102;48.628;9.002;2023-05-07T04:41:29;95956.03;;;8.54;100.00
75521;BME280;64102;48.628;9.002;2023-05-07T04:43:54;95956.88;;;8.64;100.00
75521;BME280;64102;48.628;9.002;2023-05-07T04:46:20;95956.50;;;8.69;100.00
75521;BME280;64102;48.628;9.002;2023-05-07T04:48:45;95952.22;;;8.79;100.00
75521;BME280;64102;48.628;9.002;2023-05-07T04:51:11;95965.78;;;8.90;100.00
75521;BME280;64102;48.628;9.002;2023-05-07T04:53:37;95969.19;;;9.01;100.00
75521;BME280;64102;48.628;9.002;2023-05-07T04:56:03;95966.75;;;8.99;100.00
75521;BME280;64102;48.628;9.002;2023-05-07T04:58:28;95972.47;;;9.12;100.00
75521;BME280;64102;48.628;9.002;2023-05-07T05:00:57;95971.84;;;9.39;100.00
75521;BME280;64102;48.628;9.002;2023-05-07T05:03:22;95972.53;;;9.60;100.00
75521;BME280;64102;48.628;9.002;2023-05-07T05:05:49;95978.63;;;9.78;100.00
75521;BME280;64102;48.628;9.002;2023-05-07T05:08:14;95988.66;;;10.01;98.87
75521;BME280;64102;48.628;9.002;2023-05-07T05:10:40;95981.34;;;10.15;97.73
75521;BME280;64102;48.628;9.002;2023-05-07T05:13:06;95983.88;;;10.35;97.34
75521;BME280;64102;48.628;9.002;2023-05-07T05:15:33;95980.81;;;10.58;96.07
75521;BME280;64102;48.628;9.002;2023-05-07T05:17:58;95984.84;;;10.80;95.00
75521;BME280;64102;48.628;9.002;2023-05-07T05:20:23;95993.69;;;11.05;93.67
75521;BME280;64102;48.628;9.002;2023-05-07T05:22:49;95995.91;;;11.45;92.36
75521;BME280;64102;48.628;9.002;2023-05-07T05:25:14;95999.59;;;12.31;88.63
75521;BME280;64102;48.628;9.002;2023-05-07T05:27:40;96005.50;;;13.34;82.67
75521;BME280;64102;48.628;9.002;2023-05-07T05:30:06;95997.34;;;14.20;77.09
75521;BME280;64102;48.628;9.002;2023-05-07T05:32:31;95995.19;;;14.80;76.84
75521;BME280;64102;48.628;9.002;2023-05-07T05:34:57;96003.22;;;15.40;76.47
75521;BME280;64102;48.628;9.002;2023-05-07T05:37:22;96004.47;;;16.29;71.02
75521;BME280;64102;48.628;9.002;2023-05-07T05:39:47;96002.44;;;16.76;69.81
75521;BME280;64102;48.628;9.002;2023-05-07T05:42:13;96000.03;;;16.52;70.40
75521;BME280;64102;48.628;9.002;2023-05-07T05:44:38;96004.53;;;16.95;70.22
75521;BME280;64102;48.628;9.002;2023-05-07T05:47:03;96003.50;;;17.26;68.08
75521;BME280;64102;48.628;9.002;2023-05-07T05:49:29;96016.13;;;17.73;66.87
75521;BME280;64102;48.628;9.002;2023-05-07T05:51:54;96013.63;;;18.01;64.21
75521;BME280;64102;48.628;9.002;2023-05-07T05:54:21;96003.72;;;18.60;62.25
75521;BME280;64102;48.628;9.002;2023-05-07T05:56:46;96005.47;;;18.81;62.40
75521;BME280;64102;48.628;9.002;2023-05-07T05:59:12;96007.31;;;19.21;60.39
75521;BME280;64102;48.628;9.002;2023-05-07T06:01:37;96007.16;;;19.77;58.08
75521;BME280;64102;48.628;9.002;2023-05-07T06:04:03;96004.59;;;20.09;57.30
75521;BME280;64102;48.628;9.002;2023-05-07T06:06:29;96001.38;;;20.07;56.31
75521;BME280;64102;48.628;9.002;2023-05-07T06:08:54;95999.19;;;20.24;55.71
75521;BME280;64102;48.628;9.002;2023-05-07T06:11:20;96007.28;;;19.55;56.28
75521;BME280;64102;48.628;9.002;2023-05-07T06:13:45;95998.69;;;19.75;56.86
75521;BME280;64102;48.628;9.002;2023-05-07T06:16:10;95997.56;;;20.10;55.48
75521;BME280;64102;48.628;9.002;2023-05-07T06:18:36;95999.22;;;20.50;53.72
75521;BME280;64102;48.628;9.002;2023-05-07T06:21:02;96002.03;;;20.82;53.98
75521;BME280;64102;48.628;9.002;2023-05-07T06:23:27;96011.66;;;21.21;52.48
75521;BME280;64102;48.628;9.002;2023-05-07T06:25:52;96013.81;;;21.88;50.56
75521;BME280;64102;48.628;9.002;2023-05-07T06:28:18;96006.38;;;22.23;49.03
75521;BME280;64102;48.628;9.002;2023-05-07T06:30:44;96016.47;;;22.26;50.15
75521;BME280;64102;48.628;9.002;2023-05-07T06:33:10;96017.22;;;23.07;48.19
75521;BME280;64102;48.628;9.002;2023-05-07T06:35:35;96007.56;;;23.38;47.71
75521;BME280;64102;48.628;9.002;2023-05-07T06:38:00;96018.50;;;21.86;52.12
75521;BME280;64102;48.628;9.002;2023-05-07T06:40:26;96009.00;;;21.34;50.18
75521;BME280;64102;48.628;9.002;2023-05-07T06:42:51;96007.41;;;21.26;50.37
75521;BME280;64102;48.628;9.002;2023-05-07T06:45:17;96009.91;;;20.42;53.13
75521;BME280;64102;48.628;9.002;2023-05-07T06:47:42;96010.72;;;20.36;53.05
75521;BME280;64102;48.628;9.002;2023-05-07T06:50:08;96016.75;;;19.56;56.73
75521;BME280;64102;48.628;9.002;2023-05-07T06:52:34;96018.78;;;19.61;57.39
75521;BME280;64102;48.628;9.002;2023-05-07T06:55:00;96015.28;;;19.95;56.77
75521;BME280;64102;48.628;9.002;2023-05-07T06:57:26;96007.91;;;20.38;55.07
75521;BME280;64102;48.628;9.002;2023-05-07T06:59:51;96021.94;;;20.04;56.74
75521;BME280;64102;48.628;9.002;2023-05-07T07:02:16;96010.09;;;20.67;55.12
75521;BME280;64102;48.628;9.002;2023-05-07T07:04:42;96016.31;;;21.76;53.63
75521;BME280;64102;48.628;9.002;2023-05-07T07:07:07;96017.84;;;21.97;47.81
75521;BME280;64102;48.628;9.002;2023-05-07T07:09:33;96017.94;;;22.15;48.20
75521;BME280;64102;48.628;9.002;2023-05-07T07:11:58;96019.16;;;20.97;50.51
75521;BME280;64102;48.628;9.002;2023-05-07T07:14:23;96015.47;;;21.25;51.19
75521;BME280;64102;48.628;9.002;2023-05-07T07:16:49;96018.69;;;21.84;50.22
75521;BME280;64102;48.628;9.002;2023-05-07T07:19:14;96014.81;;;22.56;46.82
75521;BME280;64102;48.628;9.002;2023-05-07T07:21:42;96023.22;;;22.65;46.24
75521;BME280;64102;48.628;9.002;2023-05-07T07:24:08;96022.44;;;21.64;49.60
75521;BME280;64102;48.628;9.002;2023-05-07T07:26:33;96024.97;;;21.26;48.72
75521;BME280;64102;48.628;9.002;2023-05-07T07:28:59;96016.78;;;21.60;48.01
75521;BME280;64102;48.628;9.002;2023-05-07T07:31:24;96020.53;;;22.47;47.20
75521;BME280;64102;48.628;9.002;2023-05-07T07:33:50;96015.44;;;22.27;46.72
75521;BME280;64102;48.628;9.002;2023-05-07T07:36:15;96024.59;;;22.18;47.62
75521;BME280;64102;48.628;9.002;2023-05-07T07:38:41;96021.88;;;22.56;47.04
75521;BME280;64102;48.628;9.002;2023-05-07T07:41:08;96019.88;;;22.83;46.64
75521;BME280;64102;48.628;9.002;2023-05-07T07:43:33;96023.94;;;23.76;43.39
75521;BME280;64102;48.628;9.002;2023-05-07T07:45:59;96016.66;;;23.42;45.24
75521;BME280;64102;48.628;9.002;2023-05-07T07:48:24;96013.19;;;23.23;44.69
75521;BME280;64102;48.628;9.002;2023-05-07T07:50:50;96015.41;;;23.44;43.81
75521;BME280;64102;48.628;9.002;2023-05-07T07:53:16;96020.88;;;24.39;42.80
75521;BME280;64102;48.628;9.002;2023-05-07T07:55:42;96024.22;;;24.99;39.62
75521;BME280;64102;48.628;9.002;2023-05-07T07:58:07;96025.16;;;25.45;40.10
75521;BME280;64102;48.628;9.002;2023-05-07T08:00:33;96022.81;;;24.32;41.28
75521;BME280;64102;48.628;9.002;2023-05-07T08:02:58;96026.69;;;24.29;42.49
75521;BME280;64102;48.628;9.002;2023-05-07T08:05:24;96036.81;;;24.85;42.07
75521;BME280;64102;48.628;9.002;2023-05-07T08:07:50;96024.75;;;25.88;41.44
75521;BME280;64102;48.628;9.002;2023-05-07T08:10:17;96026.56;;;25.47;39.47
75521;BME280;64102;48.628;9.002;2023-05-07T08:12:47;96026.94;;;25.27;39.78
75521;BME280;64102;48.628;9.002;2023-05-07T08:15:12;96030.72;;;25.20;39.54
75521;BME280;64102;48.628;9.002;2023-05-07T08:17:38;96031.34;;;23.68;43.46
75521;BME280;64102;48.628;9.002;2023-05-07T08:20:04;96029.09;;;24.84;40.50
75521;BME280;64102;48.628;9.002;2023-05-07T08:22:29;96026.97;;;24.51;40.81
75521;BME280;64102;48.628;9.002;2023-05-07T08:24:55;96031.84;;;22.79;45.10
75521;BME280;64102;48.628;9.002;2023-05-07T08:27:20;96033.13;;;23.74;42.80
75521;BME280;64102;48.628;9.002;2023-05-07T08:29:46;96032.56;;;24.96;38.67
75521;BME280;64102;48.628;9.002;2023-05-07T08:32:12;96026.59;;;25.24;39.22
75521;BME280;64102;48.628;9.002;2023-05-07T08:34:37;96025.94;;;26.08;36.73
75521;BME280;64102;48.628;9.002;2023-05-07T08:37:03;96028.19;;;25.36;37.86
75521;BME280;64102;48.628;9.002;2023-05-07T08:39:29;96022.25;;;25.81;37.18
75521;BME280;64102;48.628;9.002;2023-05-07T08:41:55;96024.41;;;25.21;38.09
75521;BME280;64102;48.628;9.002;2023-05-07T08:44:26;96022.78;;;25.55;39.68
75521;BME280;64102;48.628;9.002;2023-05-07T08:46:53;96029.03;;;26.95;36.23
75521;BME280;64102;48.628;9.002;2023-05-07T08:49:20;96029.00;;;27.12;34.86
75521;BME280;64102;48.628;9.002;2023-05-07T08:51:46;96027.88;;;26.13;39.27
75521;BME280;64102;48.628;9.002;2023-05-07T08:54:12;96028.72;;;25.73;37.61
75521;BME280;64102;48.628;9.002;2023-05-07T08:56:41;96019.19;;;26.01;37.58
75521;BME280;64102;48.628;9.002;2023-05-07T08:59:06;96027.69;;;27.31;37.27
75521;BME280;64102;48.628;9.002;2023-05-07T09:01:32;96020.81;;;26.02;37.31
75521;BME280;64102;48.628;9.002;2023-05-07T09:03:57;96025.44;;;26.23;39.21
75521;BME280;64102;48.628;9.002;2023-05-07T09:06:23;96017.34;;;26.29;38.67
75521;BME280;64102;48.628;9.002;2023-05-07T09:08:50;96020.03;;;26.63;37.85
75521;BME280;64102;48.628;9.002;2023-05-07T09:11:16;96028.09;;;27.23;37.16
75521;BME280;64102;48.628;9.002;2023-05-07T09:13:42;96022.38;;;27.70;35.44
75521;BME280;64102;48.628;9.002;2023-05-07T09:16:11;96016.41;;;28.60;34.22
75521;BME280;64102;48.628;9.002;2023-05-07T09:18:41;96015.84;;;28.58;32.60
75521;BME280;64102;48.628;9.002;2023-05-07T09:21:09;96016.56;;;27.73;34.49
75521;BME280;64102;48.628;9.002;2023-05-07T09:34:02;96003.38;;;27.56;34.25
75521;BME280;64102;48.628;9.002;2023-05-07T09:36:29;96004.25;;;27.62;33.39
75521;BME280;64102;48.628;9.002;2023-05-07T09:38:59;96005.50;;;27.37;35.42
75521;BME280;64102;48.628;9.002;2023-05-07T09:41:25;96000.41;;;27.31;35.16
75521;BME280;64102;48.628;9.002;2023-05-07T09:43:54;96000.72;;;28.58;35.20
75521;BME280;64102;48.628;9.002;2023-05-07T09:46:28;96002.69;;;30.34;32.56
75521;BME280;64102;48.628;9.002;2023-05-07T09:48:57;96008.75;;;30.09;29.92
75521;BME280;64102;48.628;9.002;2023-05-07T09:51:51;96002.91;;;28.66;31.39
75521;BME280;64102;48.628;9.002;2023-05-07T09:54:16;96009.91;;;28.72;32.35
75521;BME280;64102;48.628;9.002;2023-05-07T09:56:43;96008.00;;;29.05;33.29
75521;BME280;64102;48.628;9.002;2023-05-07T09:59:13;96012.31;;;30.81;29.79
75521;BME280;64102;48.628;9.002;2023-05-07T10:01:41;96000.47;;;31.63;29.81
75521;BME280;64102;48.628;9.002;2023-05-07T10:04:07;95989.19;;;31.76;28.06
75521;BME280;64102;48.628;9.002;2023-05-07T10:06:34;95993.66;;;30.45;29.65
75521;BME280;64102;48.628;9.002;2023-05-07T10:09:01;95988.16;;;29.17;32.51
75521;BME280;64102;48.628;9.002;2023-05-07T10:11:27;95995.25;;;28.70;33.10
75521;BME280;64102;48.628;9.002;2023-05-07T10:13:53;95978.81;;;29.62;32.02
75521;BME280;64102;48.628;9.002;2023-05-07T10:16:19;95987.00;;;30.88;29.70
75521;BME280;64102;48.628;9.002;2023-05-07T10:18:46;95982.00;;;27.24;34.85
75521;BME280;64102;48.628;9.002;2023-05-07T10:21:18;95986.34;;;26.13;36.83
75521;BME280;64102;48.628;9.002;2023-05-07T10:24:04;95984.25;;;26.60;36.03
75521;BME280;64102;48.628;9.002;2023-05-07T10:26:35;95977.03;;;26.56;39.13
75521;BME280;64102;48.628;9.002;2023-05-07T10:29:29;95979.78;;;27.16;35.43
75521;BME280;64102;48.628;9.002;2023-05-07T10:35:10;95974.22;;;28.31;34.42
75521;BME280;64102;48.628;9.002;2023-05-07T10:37:36;95971.50;;;28.26;32.54
75521;BME280;64102;48.628;9.002;2023-05-07T10:40:02;95969.91;;;27.72;35.04
75521;BME280;64102;48.628;9.002;2023-05-07T10:42:28;95979.50;;;26.62;35.20
75521;BME280;64102;48.628;9.002;2023-05-07T10:44:53;95968.91;;;25.32;37.30
75521;BME280;64102;48.628;9.002;2023-05-07T10:47:18;95974.34;;;24.79;40.96
75521;BME280;64102;48.628;9.002;2023-05-07T10:52:23;95974.22;;;25.21;39.34
75521;BME280;64102;48.628;9.002;2023-05-07T10:57:46;95963.53;;;25.67;39.67
75521;BME280;64102;48.628;9.002;2023-05-07T11:05:30;95962.03;;;25.71;40.97
75521;BME280;64102;48.628;9.002;2023-05-07T11:07:57;95961.50;;;24.71;39.94
75521;BME280;64102;48.628;9.002;2023-05-07T11:10:23;95953.88;;;25.33;37.26
75521;BME280;64102;48.628;9.002;2023-05-07T11:12:50;95948.91;;;25.48;37.52
75521;BME280;64102;48.628;9.002;2023-05-07T11:15:33;95950.03;;;25.12;42.14
75521;BME280;64102;48.628;9.002;2023-05-07T11:17:59;95954.50;;;24.00;41.24
75521;BME280;64102;48.628;9.002;2023-05-07T11:26:04;95957.75;;;23.36;47.60
75521;BME280;64102;48.628;9.002;2023-05-07T11:28:30;95965.28;;;23.33;45.68
75521;BME280;64102;48.628;9.002;2023-05-07T11:30:56;95955.47;;;23.40;45.50
75521;BME280;64102;48.628;9.002;2023-05-07T11:33:22;95958.22;;;23.51;44.35
75521;BME280;64102;48.628;9.002;2023-05-07T11:35:48;95955.44;;;23.46;44.26
75521;BME280;64102;48.628;9.002;2023-05-07T11:38:14;95964.03;;;23.35;46.92
75521;BME280;64102;48.628;9.002;2023-05-07T11:43:15;95964.56;;;22.64;47.68
75521;BME280;64102;48.628;9.002;2023-05-07T11:45:41;95963.91;;;22.69;47.28
75521;BME280;64102;48.628;9.002;2023-05-07T11:48:06;95961.22;;;22.51;48.89
75521;BME280;64102;48.628;9.002;2023-05-07T11:50:31;95950.81;;;22.38;49.43
75521;BME280;64102;48.628;9.002;2023-05-07T11:52:57;95957.44;;;22.22;50.38
75521;BME280;64102;48.628;9.002;2023-05-07T11:55:24;95968.75;;;21.91;48.16
75521;BME280;64102;48.628;9.002;2023-05-07T11:57:50;95959.00;;;21.60;50.04
75521;BME280;64102;48.628;9.002;2023-05-07T12:00:16;95956.75;;;21.19;53.30
75521;BME280;64102;48.628;9.002;2023-05-07T12:02:42;95961.88;;;20.81;53.97
75521;BME280;64102;48.628;9.002;2023-05-07T12:05:08;95966.97;;;20.37;55.69
75521;BME280;64102;48.628;9.002;2023-05-07T12:07:34;95970.94;;;20.06;60.24
75521;BME280;64102;48.628;9.002;2023-05-07T12:09:59;95981.28;;;19.47;63.73
75521;BME280;64102;48.628;9.002;2023-05-07T12:12:24;96000.19;;;18.74;69.74
75521;BME280;64102;48.628;9.002;2023-05-07T12:14:52;96012.19;;;18.19;74.88
75521;BME280;64102;48.628;9.002;2023-05-07T12:17:17;96029.88;;;17.81;77.12
75521;BME280;64102;48.628;9.002;2023-05-07T12:19:44;96029.47;;;17.49;77.15
75521;BME280;64102;48.628;9.002;2023-05-07T12:22:10;96034.19;;;16.57;77.57
75521;BME280;64102;48.628;9.002;2023-05-07T12:24:49;96045.06;;;15.70;84.81
75521;BME280;64102;48.628;9.002;2023-05-07T12:27:16;96039.88;;;15.22;83.64
75521;BME280;64102;48.628;9.002;2023-05-07T12:29:46;96058.00;;;14.84;82.34
75521;BME280;64102;48.628;9.002;2023-05-07T12:32:15;96076.38;;;14.66;80.58
75521;BME280;64102;48.628;9.002;2023-05-07T12:34:41;96083.44;;;13.91;88.94
75521;BME280;64102;48.628;9.002;2023-05-07T12:37:07;96099.59;;;13.69;81.37
75521;BME280;64102;48.628;9.002;2023-05-07T12:39:32;96093.88;;;13.23;86.37
75521;BME280;64102;48.628;9.002;2023-05-07T12:41:59;96075.28;;;13.02;86.31
75521;BME280;64102;48.628;9.002;2023-05-07T12:44:32;96096.97;;;13.01;95.61
75521;BME280;64102;48.628;9.002;2023-05-07T12:46:58;96103.47;;;13.05;93.69
75521;BME280;64102;48.628;9.002;2023-05-07T12:49:26;96098.88;;;12.73;98.80
75521;BME280;64102;48.628;9.002;2023-05-07T12:51:51;96099.09;;;12.54;95.52
75521;BME280;64102;48.628;9.002;2023-05-07T12:54:31;96086.56;;;12.93;93.94
75521;BME280;64102;48.628;9.002;2023-05-07T12:57:08;96094.94;;;12.61;96.38
75521;BME280;64102;48.628;9.002;2023-05-07T12:59:36;96092.66;;;12.40;100.00
75521;BME280;64102;48.628;9.002;2023-05-07T13:02:01;96090.91;;;12.41;100.00
75521;BME280;64102;48.628;9.002;2023-05-07T13:04:27;96090.34;;;12.37;100.00
75521;BME280;64102;48.628;9.002;2023-05-07T13:06:52;96095.97;;;12.33;100.00
75521;BME280;64102;48.628;9.002;2023-05-07T13:09:17;96085.63;;;12.33;100.00
75521;BME280;64102;48.628;9.002;2023-05-07T13:11:43;96089.03;;;12.33;100.00
75521;BME280;64102;48.628;9.002;2023-05-07T13:14:08;96082.31;;;12.40;100.00
75521;BME280;64102;48.628;9.002;2023-05-07T13:16:33;96082.66;;;12.63;100.00
75521;BME280;64102;48.628;9.002;2023-05-07T13:18:59;96090.63;;;12.70;100.00
75521;BME280;64102;48.628;9.002;2023-05-07T13:21:24;96102.56;;;12.63;100.00
75521;BME280;64102;48.628;9.002;2023-05-07T13:23:49;96124.53;;;12.59;100.00
75521;BME280;64102;48.628;9.002;2023-05-07T13:26:15;96133.63;;;12.63;100.00
75521;BME280;64102;48.628;9.002;2023-05-07T13:28:40;96137.53;;;12.67;100.00